sensor_id;sensor_type;location;lat;lon;timestamp;P1;durP1;ratioP1;P2;durP2;ratioP2
15476;SDS011;7840;42.702;23.296;2023-02-28T00:02:18;20.03;;;15.80;;
15476;SDS011;7840;42.702;23.296;2023-02-28T00:04:47;21.07;;;16.77;;
15476;SDS011;7840;42.702;23.296;2023-02-28T00:07:27;18.13;;;16.23;;
15476;SDS011;7840;42.702;23.296;2023-02-28T00:09:55;20.30;;;16.27;;
15476;SDS011;7840;42.702;23.296;2023-02-28T00:12:23;20.37;;;16.87;;
15476;SDS011;7840;42.702;23.296;2023-02-28T00:14:53;20.37;;;16.73;;
15476;SDS011;7840;42.702;23.296;2023-02-28T00:17:23;21.03;;;16.27;;
15476;SDS011;7840;42.702;23.296;2023-02-28T00:19:53;21.47;;;16.80;;
15476;SDS011;7840;42.702;23.296;2023-02-28T00:22:22;17.53;;;15.73;;
15476;SDS011;7840;42.702;23.296;2023-02-28T00:24:50;23.23;;;16.60;;
15476;SDS011;7840;42.702;23.296;2023-02-28T00:27:17;21.27;;;16.77;;
15476;SDS011;7840;42.702;23.296;2023-02-28T00:29:46;22.53;;;16.17;;
15476;SDS011;7840;42.702;23.296;2023-02-28T00:32:15;21.43;;;15.93;;
15476;SDS011;7840;42.702;23.296;2023-02-28T00:34:43;20.63;;;16.70;;
15476;SDS011;7840;42.702;23.296;2023-02-28T00:37:17;23.77;;;18.70;;
15476;SDS011;7840;42.702;23.296;2023-02-28T00:39:44;24.93;;;19.13;;
15476;SDS011;7840;42.702;23.296;2023-02-28T00:42:14;29.03;;;19.30;;
15476;SDS011;7840;42.702;23.296;2023-02-28T00:44:46;27.27;;;20.03;;
15476;SDS011;7840;42.702;23.296;2023-02-28T00:47:15;25.27;;;20.23;;
15476;SDS011;7840;42.702;23.296;2023-02-28T00:49:43;27.83;;;21.27;;
15476;SDS011;7840;42.702;23.296;2023-02-28T00:52:27;30.30;;;19.87;;
15476;SDS011;7840;42.702;23.296;2023-02-28T00:54:58;27.40;;;21.30;;
15476;SDS011;7840;42.702;23.296;2023-02-28T00:57:27;29.53;;;21.80;;
15476;SDS011;7840;42.702;23.296;2023-02-28T00:59:55;30.37;;;22.20;;
15476;SDS011;7840;42.702;23.296;2023-02-28T01:02:24;28.40;;;22.50;;
15476;SDS011;7840;42.702;23.296;2023-02-28T01:05:04;36.40;;;25.37;;
15476;SDS011;7840;42.702;23.296;2023-02-28T01:07:33;34.03;;;24.50;;
15476;SDS011;7840;42.702;23.296;2023-02-28T01:10:33;30.37;;;23.33;;
15476;SDS011;7840;42.702;23.296;2023-02-28T01:13:03;33.17;;;25.87;;
15476;SDS011;7840;42.702;23.296;2023-02-28T01:15:45;31.97;;;23.90;;
15476;SDS011;7840;42.702;23.296;2023-02-28T01:18:15;34.57;;;25.10;;
15476;SDS011;7840;42.702;23.296;2023-02-28T01:20:43;33.03;;;24.80;;
15476;SDS011;7840;42.702;23.296;2023-02-28T01:23:11;33.57;;;26.63;;
15476;SDS011;7840;42.702;23.296;2023-02-28T01:25:40;36.83;;;27.23;;
15476;SDS011;7840;42.702;23.296;2023-02-28T01:28:08;35.83;;;25.97;;
15476;SDS011;7840;42.702;23.296;2023-02-28T01:30:35;37.90;;;26.33;;
15476;SDS011;7840;42.702;23.296;2023-02-28T01:33:02;41.00;;;26.57;;
15476;SDS011;7840;42.702;23.296;2023-02-28T01:35:31;35.27;;;24.27;;
15476;SDS011;7840;42.702;23.296;2023-02-28T01:38:01;34.57;;;23.77;;
15476;SDS011;7840;42.702;23.296;2023-02-28T01:40:29;33.63;;;24.90;;
15476;SDS011;7840;42.702;23.296;2023-02-28T01:42:59;31.20;;;21.07;;
15476;SDS011;7840;42.702;23.296;2023-02-28T01:45:28;34.13;;;21.73;;
15476;SDS011;7840;42.702;23.296;2023-02-28T01:47:57;29.80;;;21.07;;
15476;SDS011;7840;42.702;23.296;2023-02-28T01:50:26;28.53;;;20.10;;
15476;SDS011;7840;42.702;23.296;2023-02-28T01:52:59;30.17;;;20.03;;
15476;SDS011;7840;42.702;23.296;2023-02-28T01:55:31;28.67;;;19.87;;
15476;SDS011;7840;42.702;23.296;2023-02-28T01:58:01;31.07;;;19.03;;
15476;SDS011;7840;42.702;23.296;2023-02-28T02:00:29;27.53;;;18.97;;
15476;SDS011;7840;42.702;23.296;2023-02-28T02:02:57;32.00;;;19.47;;
15476;SDS011;7840;42.702;23.296;2023-02-28T02:05:26;30.13;;;21.43;;
15476;SDS011;7840;42.702;23.296;2023-02-28T02:07:56;32.57;;;21.70;;
15476;SDS011;7840;42.702;23.296;2023-02-28T02:10:25;31.90;;;21.57;;
15476;SDS011;7840;42.702;23.296;2023-02-28T02:15:44;34.23;;;22.43;;
15476;SDS011;7840;42.702;23.296;2023-02-28T02:18:16;39.37;;;23.17;;
15476;SDS011;7840;42.702;23.296;2023-02-28T02:23:58;40.50;;;25.63;;
15476;SDS011;7840;42.702;23.296;2023-02-28T02:26:51;42.93;;;26.27;;
15476;SDS011;7840;42.702;23.296;2023-02-28T02:29:36;48.67;;;26.90;;
15476;SDS011;7840;42.702;23.296;2023-02-28T02:35:00;54.73;;;28.67;;
15476;SDS011;7840;42.702;23.296;2023-02-28T02:37:33;44.17;;;27.00;;
15476;SDS011;7840;42.702;23.296;2023-02-28T02:40:10;52.30;;;28.07;;
15476;SDS011;7840;42.702;23.296;2023-02-28T02:42:41;40.93;;;25.57;;
15476;SDS011;7840;42.702;23.296;2023-02-28T02:45:12;43.13;;;26.50;;
15476;SDS011;7840;42.702;23.296;2023-02-28T02:47:41;41.70;;;25.10;;
15476;SDS011;7840;42.702;23.296;2023-02-28T02:50:13;44.87;;;26.30;;
15476;SDS011;7840;42.702;23.296;2023-02-28T02:52:42;45.93;;;26.70;;
15476;SDS011;7840;42.702;23.296;2023-02-28T02:55:15;43.43;;;26.03;;
15476;SDS011;7840;42.702;23.296;2023-02-28T02:57:58;46.63;;;25.20;;
15476;SDS011;7840;42.702;23.296;2023-02-28T03:00:34;42.60;;;25.97;;
15476;SDS011;7840;42.702;23.296;2023-02-28T03:03:02;50.50;;;27.43;;
15476;SDS011;7840;42.702;23.296;2023-02-28T03:05:33;45.87;;;26.60;;
15476;SDS011;7840;42.702;23.296;2023-02-28T03:08:03;46.77;;;26.40;;
15476;SDS011;7840;42.702;23.296;2023-02-28T03:10:33;38.97;;;24.40;;
15476;SDS011;7840;42.702;23.296;2023-02-28T03:15:52;39.07;;;23.20;;
15476;SDS011;7840;42.702;23.296;2023-02-28T03:18:24;37.67;;;23.13;;
15476;SDS011;7840;42.702;23.296;2023-02-28T03:23:42;39.60;;;23.37;;
15476;SDS011;7840;42.702;23.296;2023-02-28T03:26:13;38.90;;;23.33;;
15476;SDS011;7840;42.702;23.296;2023-02-28T03:28:45;36.70;;;22.47;;
15476;SDS011;7840;42.702;23.296;2023-02-28T03:31:15;48.30;;;25.17;;
15476;SDS011;7840;42.702;23.296;2023-02-28T03:33:44;38.30;;;24.63;;
15476;SDS011;7840;42.702;23.296;2023-02-28T03:36:19;41.43;;;26.10;;
15476;SDS011;7840;42.702;23.296;2023-02-28T03:38:51;41.57;;;26.53;;
15476;SDS011;7840;42.702;23.296;2023-02-28T03:41:20;36.93;;;24.37;;
15476;SDS011;7840;42.702;23.296;2023-02-28T03:43:53;33.37;;;23.53;;
15476;SDS011;7840;42.702;23.296;2023-02-28T03:46:22;31.67;;;21.53;;
15476;SDS011;7840;42.702;23.296;2023-02-28T03:49:09;31.47;;;20.83;;
15476;SDS011;7840;42.702;23.296;2023-02-28T03:51:38;33.10;;;21.80;;
15476;SDS011;7840;42.702;23.296;2023-02-28T03:54:09;28.20;;;20.37;;
15476;SDS011;7840;42.702;23.296;2023-02-28T03:56:42;34.57;;;22.37;;
15476;SDS011;7840;42.702;23.296;2023-02-28T03:59:12;40.07;;;23.03;;
15476;SDS011;7840;42.702;23.296;2023-02-28T04:01:41;36.67;;;22.27;;
15476;SDS011;7840;42.702;23.296;2023-02-28T04:04:11;35.40;;;21.70;;
15476;SDS011;7840;42.702;23.296;2023-02-28T04:06:42;33.10;;;21.10;;
15476;SDS011;7840;42.702;23.296;2023-02-28T04:09:12;34.90;;;23.87;;
15476;SDS011;7840;42.702;23.296;2023-02-28T04:11:43;32.90;;;21.67;;
15476;SDS011;7840;42.702;23.296;2023-02-28T04:14:11;31.83;;;21.40;;
15476;SDS011;7840;42.702;23.296;2023-02-28T04:16:39;31.77;;;21.27;;
15476;SDS011;7840;42.702;23.296;2023-02-28T04:19:08;31.10;;;20.03;;
15476;SDS011;7840;42.702;23.296;2023-02-28T04:21:36;30.70;;;20.37;;
15476;SDS011;7840;42.702;23.296;2023-02-28T04:24:09;30.37;;;19.77;;
15476;SDS011;7840;42.702;23.296;2023-02-28T04:26:41;32.17;;;21.10;;
15476;SDS011;7840;42.702;23.296;2023-02-28T04:29:06;36.03;;;21.40;;
15476;SDS011;7840;42.702;23.296;2023-02-28T04:31:34;32.73;;;21.17;;
15476;SDS011;7840;42.702;23.296;2023-02-28T04:34:01;37.57;;;23.27;;
15476;SDS011;7840;42.702;23.296;2023-02-28T04:36:29;40.43;;;23.97;;
15476;SDS011;7840;42.702;23.296;2023-02-28T04:38:58;40.23;;;24.47;;
15476;SDS011;7840;42.702;23.296;2023-02-28T04:41:29;40.70;;;25.33;;
15476;SDS011;7840;42.702;23.296;2023-02-28T04:46:43;40.10;;;25.57;;
15476;SDS011;7840;42.702;23.296;2023-02-28T04:49:11;40.80;;;26.07;;
15476;SDS011;7840;42.702;23.296;2023-02-28T04:51:38;38.90;;;25.97;;
15476;SDS011;7840;42.702;23.296;2023-02-28T04:54:15;41.17;;;25.67;;
15476;SDS011;7840;42.702;23.296;2023-02-28T04:57:02;46.00;;;27.80;;
15476;SDS011;7840;42.702;23.296;2023-02-28T04:59:29;40.53;;;25.17;;
15476;SDS011;7840;42.702;23.296;2023-02-28T05:01:58;46.83;;;27.07;;
15476;SDS011;7840;42.702;23.296;2023-02-28T05:04:25;39.13;;;24.77;;
15476;SDS011;7840;42.702;23.296;2023-02-28T05:06:55;44.20;;;25.93;;
15476;SDS011;7840;42.702;23.296;2023-02-28T05:09:22;48.73;;;27.40;;
15476;SDS011;7840;42.702;23.296;2023-02-28T05:11:53;51.20;;;27.67;;
15476;SDS011;7840;42.702;23.296;2023-02-28T05:14:37;48.13;;;28.53;;
15476;SDS011;7840;42.702;23.296;2023-02-28T05:17:08;60.53;;;31.67;;
15476;SDS011;7840;42.702;23.296;2023-02-28T05:19:35;65.00;;;31.60;;
15476;SDS011;7840;42.702;23.296;2023-02-28T05:22:03;78.13;;;31.93;;
15476;SDS011;7840;42.702;23.296;2023-02-28T05:24:30;66.63;;;32.17;;
15476;SDS011;7840;42.702;23.296;2023-02-28T05:26:58;62.40;;;32.43;;
15476;SDS011;7840;42.702;23.296;2023-02-28T05:29:25;66.77;;;32.90;;
15476;SDS011;7840;42.702;23.296;2023-02-28T05:31:52;64.17;;;33.53;;
15476;SDS011;7840;42.702;23.296;2023-02-28T05:34:23;63.70;;;33.93;;
15476;SDS011;7840;42.702;23.296;2023-02-28T05:36:51;69.20;;;37.13;;
15476;SDS011;7840;42.702;23.296;2023-02-28T05:39:20;79.13;;;37.47;;
15476;SDS011;7840;42.702;23.296;2023-02-28T05:41:48;66.93;;;38.23;;
15476;SDS011;7840;42.702;23.296;2023-02-28T05:44:18;69.47;;;39.67;;
15476;SDS011;7840;42.702;23.296;2023-02-28T05:46:57;73.63;;;39.87;;
15476;SDS011;7840;42.702;23.296;2023-02-28T05:49:51;66.73;;;37.23;;
15476;SDS011;7840;42.702;23.296;2023-02-28T05:52:20;61.63;;;33.20;;
15476;SDS011;7840;42.702;23.296;2023-02-28T05:54:48;63.80;;;34.67;;
15476;SDS011;7840;42.702;23.296;2023-02-28T05:57:22;63.20;;;35.20;;
15476;SDS011;7840;42.702;23.296;2023-02-28T05:59:49;64.40;;;35.20;;
15476;SDS011;7840;42.702;23.296;2023-02-28T06:02:16;67.40;;;36.03;;
15476;SDS011;7840;42.702;23.296;2023-02-28T06:05:02;78.47;;;40.10;;
15476;SDS011;7840;42.702;23.296;2023-02-28T06:07:36;72.20;;;44.07;;
15476;SDS011;7840;42.702;23.296;2023-02-28T06:10:08;67.80;;;39.30;;
15476;SDS011;7840;42.702;23.296;2023-02-28T06:12:37;71.07;;;41.57;;
15476;SDS011;7840;42.702;23.296;2023-02-28T06:15:07;70.63;;;41.37;;
15476;SDS011;7840;42.702;23.296;2023-02-28T06:17:47;70.57;;;41.27;;
15476;SDS011;7840;42.702;23.296;2023-02-28T06:20:20;67.13;;;39.47;;
15476;SDS011;7840;42.702;23.296;2023-02-28T06:22:48;63.20;;;37.60;;
15476;SDS011;7840;42.702;23.296;2023-02-28T06:25:19;55.87;;;35.40;;
15476;SDS011;7840;42.702;23.296;2023-02-28T06:27:47;59.80;;;34.13;;
15476;SDS011;7840;42.702;23.296;2023-02-28T06:30:21;51.43;;;33.03;;
15476;SDS011;7840;42.702;23.296;2023-02-28T06:32:56;52.17;;;33.57;;
15476;SDS011;7840;42.702;23.296;2023-02-28T06:35:28;57.23;;;32.60;;
15476;SDS011;7840;42.702;23.296;2023-02-28T06:37:55;49.97;;;30.80;;
15476;SDS011;7840;42.702;23.296;2023-02-28T06:40:28;42.93;;;28.93;;
15476;SDS011;7840;42.702;23.296;2023-02-28T06:43:09;48.73;;;30.90;;
15476;SDS011;7840;42.702;23.296;2023-02-28T06:45:42;46.57;;;29.83;;
15476;SDS011;7840;42.702;23.296;2023-02-28T06:48:11;49.93;;;31.40;;
15476;SDS011;7840;42.702;23.296;2023-02-28T06:50:47;59.23;;;36.67;;
15476;SDS011;7840;42.702;23.296;2023-02-28T06:53:15;69.27;;;43.50;;
15476;SDS011;7840;42.702;23.296;2023-02-28T06:55:44;67.60;;;40.83;;
15476;SDS011;7840;42.702;23.296;2023-02-28T06:58:15;66.90;;;40.40;;
15476;SDS011;7840;42.702;23.296;2023-02-28T07:00:44;63.43;;;39.80;;
15476;SDS011;7840;42.702;23.296;2023-02-28T07:03:12;62.03;;;37.67;;
15476;SDS011;7840;42.702;23.296;2023-02-28T07:05:40;55.53;;;36.20;;
15476;SDS011;7840;42.702;23.296;2023-02-28T07:08:09;62.27;;;36.63;;
15476;SDS011;7840;42.702;23.296;2023-02-28T07:10:37;55.07;;;34.70;;
15476;SDS011;7840;42.702;23.296;2023-02-28T07:13:04;54.83;;;36.07;;
15476;SDS011;7840;42.702;23.296;2023-02-28T07:15:32;58.70;;;39.00;;
15476;SDS011;7840;42.702;23.296;2023-02-28T07:17:59;54.13;;;35.80;;
15476;SDS011;7840;42.702;23.296;2023-02-28T07:20:26;52.93;;;35.70;;
15476;SDS011;7840;42.702;23.296;2023-02-28T07:22:54;49.37;;;34.43;;
15476;SDS011;7840;42.702;23.296;2023-02-28T07:25:23;49.67;;;33.47;;
15476;SDS011;7840;42.702;23.296;2023-02-28T07:27:51;53.33;;;33.93;;
15476;SDS011;7840;42.702;23.296;2023-02-28T07:30:19;53.80;;;32.80;;
15476;SDS011;7840;42.702;23.296;2023-02-28T07:32:46;52.97;;;33.57;;
15476;SDS011;7840;42.702;23.296;2023-02-28T07:35:13;50.30;;;33.40;;
15476;SDS011;7840;42.702;23.296;2023-02-28T07:37:41;46.33;;;30.17;;
15476;SDS011;7840;42.702;23.296;2023-02-28T07:40:16;43.70;;;30.17;;
15476;SDS011;7840;42.702;23.296;2023-02-28T07:42:45;45.33;;;31.03;;
15476;SDS011;7840;42.702;23.296;2023-02-28T07:45:13;47.80;;;29.00;;
15476;SDS011;7840;42.702;23.296;2023-02-28T07:47:55;43.60;;;30.83;;
15476;SDS011;7840;42.702;23.296;2023-02-28T07:50:24;47.97;;;30.57;;
15476;SDS011;7840;42.702;23.296;2023-02-28T07:53:03;51.07;;;30.77;;
15476;SDS011;7840;42.702;23.296;2023-02-28T07:55:43;48.03;;;30.57;;
15476;SDS011;7840;42.702;23.296;2023-02-28T07:58:11;44.20;;;29.70;;
15476;SDS011;7840;42.702;23.296;2023-02-28T08:00:39;42.10;;;29.90;;
15476;SDS011;7840;42.702;23.296;2023-02-28T08:03:09;45.97;;;29.77;;
15476;SDS011;7840;42.702;23.296;2023-02-28T08:05:41;39.43;;;28.63;;
15476;SDS011;7840;42.702;23.296;2023-02-28T08:08:09;42.03;;;28.37;;
15476;SDS011;7840;42.702;23.296;2023-02-28T08:10:37;44.83;;;30.17;;
15476;SDS011;7840;42.702;23.296;2023-02-28T08:13:10;41.63;;;29.47;;
15476;SDS011;7840;42.702;23.296;2023-02-28T08:15:39;40.33;;;29.10;;
15476;SDS011;7840;42.702;23.296;2023-02-28T08:18:18;40.90;;;28.47;;
15476;SDS011;7840;42.702;23.296;2023-02-28T08:20:45;45.13;;;29.37;;
15476;SDS011;7840;42.702;23.296;2023-02-28T08:23:14;35.73;;;27.27;;
15476;SDS011;7840;42.702;23.296;2023-02-28T08:25:42;40.10;;;28.50;;
15476;SDS011;7840;42.702;23.296;2023-02-28T08:28:09;34.27;;;26.67;;
15476;SDS011;7840;42.702;23.296;2023-02-28T08:30:37;37.10;;;25.60;;
15476;SDS011;7840;42.702;23.296;2023-02-28T08:33:07;36.37;;;26.33;;
15476;SDS011;7840;42.702;23.296;2023-02-28T08:35:38;34.80;;;26.40;;
15476;SDS011;7840;42.702;23.296;2023-02-28T08:38:08;28.83;;;24.90;;
15476;SDS011;7840;42.702;23.296;2023-02-28T08:40:39;30.30;;;24.73;;
15476;SDS011;7840;42.702;23.296;2023-02-28T08:43:13;32.73;;;24.37;;
15476;SDS011;7840;42.702;23.296;2023-02-28T08:45:41;29.77;;;23.87;;
15476;SDS011;7840;42.702;23.296;2023-02-28T08:48:13;31.50;;;24.97;;
15476;SDS011;7840;42.702;23.296;2023-02-28T08:50:41;30.77;;;23.90;;
15476;SDS011;7840;42.702;23.296;2023-02-28T08:53:11;32.43;;;23.90;;
15476;SDS011;7840;42.702;23.296;2023-02-28T08:55:38;41.70;;;31.60;;
15476;SDS011;7840;42.702;23.296;2023-02-28T08:58:08;49.90;;;34.57;;
15476;SDS011;7840;42.702;23.296;2023-02-28T09:00:35;46.07;;;33.13;;
15476;SDS011;7840;42.702;23.296;2023-02-28T09:03:02;46.27;;;33.77;;
15476;SDS011;7840;42.702;23.296;2023-02-28T09:05:31;49.53;;;34.53;;
15476;SDS011;7840;42.702;23.296;2023-02-28T09:08:02;47.03;;;34.60;;
15476;SDS011;7840;42.702;23.296;2023-02-28T09:10:29;46.90;;;34.47;;
15476;SDS011;7840;42.702;23.296;2023-02-28T09:12:59;48.23;;;34.77;;
15476;SDS011;7840;42.702;23.296;2023-02-28T09:15:29;49.20;;;34.17;;
15476;SDS011;7840;42.702;23.296;2023-02-28T09:17:59;53.70;;;33.87;;
15476;SDS011;7840;42.702;23.296;2023-02-28T09:20:28;52.73;;;32.77;;
15476;SDS011;7840;42.702;23.296;2023-02-28T09:22:57;49.43;;;33.07;;
15476;SDS011;7840;42.702;23.296;2023-02-28T09:25:35;46.83;;;32.43;;
15476;SDS011;7840;42.702;23.296;2023-02-28T09:28:03;43.60;;;31.30;;
15476;SDS011;7840;42.702;23.296;2023-02-28T09:30:31;47.07;;;32.23;;
15476;SDS011;7840;42.702;23.296;2023-02-28T09:32:58;49.07;;;32.00;;
15476;SDS011;7840;42.702;23.296;2023-02-28T09:35:26;49.13;;;32.80;;
15476;SDS011;7840;42.702;23.296;2023-02-28T09:37:54;50.33;;;32.03;;
15476;SDS011;7840;42.702;23.296;2023-02-28T09:40:23;45.77;;;34.50;;
15476;SDS011;7840;42.702;23.296;2023-02-28T09:43:05;51.47;;;34.60;;
15476;SDS011;7840;42.702;23.296;2023-02-28T09:45:34;48.00;;;33.60;;
15476;SDS011;7840;42.702;23.296;2023-02-28T09:48:03;44.50;;;32.07;;
15476;SDS011;7840;42.702;23.296;2023-02-28T09:50:33;42.97;;;31.37;;
15476;SDS011;7840;42.702;23.296;2023-02-28T09:55:49;43.80;;;31.67;;
15476;SDS011;7840;42.702;23.296;2023-02-28T09:58:18;49.00;;;31.37;;
15476;SDS011;7840;42.702;23.296;2023-02-28T10:00:48;41.97;;;30.73;;
15476;SDS011;7840;42.702;23.296;2023-02-28T10:03:22;36.03;;;28.93;;
15476;SDS011;7840;42.702;23.296;2023-02-28T10:05:56;41.47;;;28.27;;
15476;SDS011;7840;42.702;23.296;2023-02-28T10:08:29;40.67;;;28.90;;
15476;SDS011;7840;42.702;23.296;2023-02-28T10:11:00;42.87;;;30.10;;
15476;SDS011;7840;42.702;23.296;2023-02-28T10:13:32;38.40;;;29.27;;
15476;SDS011;7840;42.702;23.296;2023-02-28T10:16:01;40.30;;;28.40;;
15476;SDS011;7840;42.702;23.296;2023-02-28T10:18:35;37.07;;;24.87;;
15476;SDS011;7840;42.702;23.296;2023-02-28T10:21:05;33.13;;;22.20;;
15476;SDS011;7840;42.702;23.296;2023-02-28T10:23:36;29.17;;;19.77;;
15476;SDS011;7840;42.702;23.296;2023-02-28T10:26:18;20.73;;;14.55;;
15476;SDS011;7840;42.702;23.296;2023-02-28T10:28:45;22.30;;;14.10;;
15476;SDS011;7840;42.702;23.296;2023-02-28T10:31:17;23.23;;;13.60;;
15476;SDS011;7840;42.702;23.296;2023-02-28T10:33:47;21.02;;;13.38;;
15476;SDS011;7840;42.702;23.296;2023-02-28T10:36:16;26.30;;;14.38;;
15476;SDS011;7840;42.702;23.296;2023-02-28T10:38:45;22.48;;;12.45;;
15476;SDS011;7840;42.702;23.296;2023-02-28T10:41:14;22.63;;;12.40;;
15476;SDS011;7840;42.702;23.296;2023-02-28T10:43:42;18.50;;;11.93;;
15476;SDS011;7840;42.702;23.296;2023-02-28T10:46:11;19.77;;;11.82;;
15476;SDS011;7840;42.702;23.296;2023-02-28T10:48:57;21.60;;;12.02;;
15476;SDS011;7840;42.702;23.296;2023-02-28T10:51:27;22.05;;;12.25;;
15476;SDS011;7840;42.702;23.296;2023-02-28T10:54:01;23.13;;;12.38;;
15476;SDS011;7840;42.702;23.296;2023-02-28T10:56:31;19.77;;;10.90;;
15476;SDS011;7840;42.702;23.296;2023-02-28T10:59:00;22.73;;;11.73;;
15476;SDS011;7840;42.702;23.296;2023-02-28T11:01:35;18.55;;;11.18;;
15476;SDS011;7840;42.702;23.296;2023-02-28T11:04:03;23.67;;;10.93;;
15476;SDS011;7840;42.702;23.296;2023-02-28T11:06:44;19.30;;;11.52;;
15476;SDS011;7840;42.702;23.296;2023-02-28T11:09:18;19.27;;;11.43;;
15476;SDS011;7840;42.702;23.296;2023-02-28T11:12:03;22.20;;;12.50;;
15476;SDS011;7840;42.702;23.296;2023-02-28T11:14:43;19.88;;;11.60;;
15476;SDS011;7840;42.702;23.296;2023-02-28T11:17:14;20.13;;;11.73;;
15476;SDS011;7840;42.702;23.296;2023-02-28T11:19:46;23.40;;;11.27;;
15476;SDS011;7840;42.702;23.296;2023-02-28T11:22:31;24.52;;;12.73;;
15476;SDS011;7840;42.702;23.296;2023-02-28T11:25:01;21.48;;;13.38;;
15476;SDS011;7840;42.702;23.296;2023-02-28T11:27:44;22.48;;;12.63;;
15476;SDS011;7840;42.702;23.296;2023-02-28T11:30:25;18.52;;;11.35;;
15476;SDS011;7840;42.702;23.296;2023-02-28T11:32:53;24.85;;;11.63;;
15476;SDS011;7840;42.702;23.296;2023-02-28T11:35:21;23.17;;;11.52;;
15476;SDS011;7840;42.702;23.296;2023-02-28T11:38:07;21.65;;;11.93;;
15476;SDS011;7840;42.702;23.296;2023-02-28T11:40:39;20.17;;;11.88;;
15476;SDS011;7840;42.702;23.296;2023-02-28T11:46:02;20.02;;;11.27;;
15476;SDS011;7840;42.702;23.296;2023-02-28T11:48:33;22.90;;;12.10;;
15476;SDS011;7840;42.702;23.296;2023-02-28T11:51:10;25.63;;;10.88;;
15476;SDS011;7840;42.702;23.296;2023-02-28T11:53:44;14.98;;;10.23;;
15476;SDS011;7840;42.702;23.296;2023-02-28T11:56:21;20.35;;;11.48;;
15476;SDS011;7840;42.702;23.296;2023-02-28T11:59:08;22.60;;;12.80;;
15476;SDS011;7840;42.702;23.296;2023-02-28T12:01:46;24.52;;;11.77;;
15476;SDS011;7840;42.702;23.296;2023-02-28T12:04:24;23.58;;;12.30;;
15476;SDS011;7840;42.702;23.296;2023-02-28T12:06:55;21.63;;;11.23;;
15476;SDS011;7840;42.702;23.296;2023-02-28T12:09:32;21.80;;;11.68;;
15476;SDS011;7840;42.702;23.296;2023-02-28T12:12:12;22.42;;;11.88;;
15476;SDS011;7840;42.702;23.296;2023-02-28T12:20:33;27.15;;;11.35;;
15476;SDS011;7840;42.702;23.296;2023-02-28T12:23:18;18.98;;;11.45;;
15476;SDS011;7840;42.702;23.296;2023-02-28T12:25:51;24.38;;;12.05;;
15476;SDS011;7840;42.702;23.296;2023-02-28T12:28:24;19.73;;;10.60;;
15476;SDS011;7840;42.702;23.296;2023-02-28T12:30:53;20.23;;;10.63;;
15476;SDS011;7840;42.702;23.296;2023-02-28T12:33:24;24.40;;;11.35;;
15476;SDS011;7840;42.702;23.296;2023-02-28T12:35:56;25.85;;;11.88;;
15476;SDS011;7840;42.702;23.296;2023-02-28T12:38:24;18.80;;;11.25;;
15476;SDS011;7840;42.702;23.296;2023-02-28T12:40:56;20.98;;;11.90;;
15476;SDS011;7840;42.702;23.296;2023-02-28T12:43:27;27.17;;;12.05;;
15476;SDS011;7840;42.702;23.296;2023-02-28T12:46:09;19.83;;;11.55;;
15476;SDS011;7840;42.702;23.296;2023-02-28T12:48:38;29.92;;;12.38;;
15476;SDS011;7840;42.702;23.296;2023-02-28T12:51:09;24.88;;;12.68;;
15476;SDS011;7840;42.702;23.296;2023-02-28T12:53:41;26.73;;;12.65;;
15476;SDS011;7840;42.702;23.296;2023-02-28T12:56:12;19.45;;;12.10;;
15476;SDS011;7840;42.702;23.296;2023-02-28T12:58:41;21.85;;;11.98;;
15476;SDS011;7840;42.702;23.296;2023-02-28T13:01:18;19.58;;;11.27;;
15476;SDS011;7840;42.702;23.296;2023-02-28T13:04:14;23.15;;;11.13;;
15476;SDS011;7840;42.702;23.296;2023-02-28T13:09:35;17.10;;;10.50;;
15476;SDS011;7840;42.702;23.296;2023-02-28T13:12:04;25.42;;;11.05;;
15476;SDS011;7840;42.702;23.296;2023-02-28T13:14:39;18.75;;;11.15;;
15476;SDS011;7840;42.702;23.296;2023-02-28T13:17:10;21.98;;;10.70;;
15476;SDS011;7840;42.702;23.296;2023-02-28T13:19:39;17.35;;;10.75;;
15476;SDS011;7840;42.702;23.296;2023-02-28T13:22:15;21.25;;;11.00;;
15476;SDS011;7840;42.702;23.296;2023-02-28T13:24:46;16.92;;;10.95;;
15476;SDS011;7840;42.702;23.296;2023-02-28T13:29:59;24.25;;;12.73;;
15476;SDS011;7840;42.702;23.296;2023-02-28T13:38:08;18.48;;;9.70;;
15476;SDS011;7840;42.702;23.296;2023-02-28T13:40:39;18.17;;;10.95;;
15476;SDS011;7840;42.702;23.296;2023-02-28T13:43:07;21.15;;;10.50;;
15476;SDS011;7840;42.702;23.296;2023-02-28T13:45:40;21.38;;;12.02;;
15476;SDS011;7840;42.702;23.296;2023-02-28T13:48:30;17.65;;;10.80;;
15476;SDS011;7840;42.702;23.296;2023-02-28T13:50:57;20.25;;;10.20;;
15476;SDS011;7840;42.702;23.296;2023-02-28T13:53:29;20.00;;;11.48;;
15476;SDS011;7840;42.702;23.296;2023-02-28T13:56:17;21.35;;;10.30;;
15476;SDS011;7840;42.702;23.296;2023-02-28T13:58:48;25.65;;;11.13;;
15476;SDS011;7840;42.702;23.296;2023-02-28T14:01:31;25.90;;;10.88;;
15476;SDS011;7840;42.702;23.296;2023-02-28T14:04:04;19.30;;;10.63;;
15476;SDS011;7840;42.702;23.296;2023-02-28T14:06:36;19.42;;;10.73;;
15476;SDS011;7840;42.702;23.296;2023-02-28T14:09:06;17.35;;;10.60;;
15476;SDS011;7840;42.702;23.296;2023-02-28T14:11:44;20.13;;;10.65;;
15476;SDS011;7840;42.702;23.296;2023-02-28T14:17:17;14.15;;;9.45;;
15476;SDS011;7840;42.702;23.296;2023-02-28T14:19:58;13.30;;;9.38;;
15476;SDS011;7840;42.702;23.296;2023-02-28T14:22:36;26.42;;;10.45;;
15476;SDS011;7840;42.702;23.296;2023-02-28T14:25:13;18.27;;;10.45;;
15476;SDS011;7840;42.702;23.296;2023-02-28T14:30:51;17.45;;;10.43;;
15476;SDS011;7840;42.702;23.296;2023-02-28T14:33:22;19.20;;;11.05;;
15476;SDS011;7840;42.702;23.296;2023-02-28T14:35:58;16.95;;;9.95;;
15476;SDS011;7840;42.702;23.296;2023-02-28T14:38:28;28.65;;;12.82;;
15476;SDS011;7840;42.702;23.296;2023-02-28T14:40:57;20.35;;;13.52;;
15476;SDS011;7840;42.702;23.296;2023-02-28T14:43:26;26.08;;;15.48;;
15476;SDS011;7840;42.702;23.296;2023-02-28T14:45:55;22.10;;;13.30;;
15476;SDS011;7840;42.702;23.296;2023-02-28T14:48:24;15.80;;;10.95;;
15476;SDS011;7840;42.702;23.296;2023-02-28T14:50:55;23.02;;;10.98;;
15476;SDS011;7840;42.702;23.296;2023-02-28T14:53:25;22.02;;;10.65;;
15476;SDS011;7840;42.702;23.296;2023-02-28T14:55:53;17.55;;;10.88;;
15476;SDS011;7840;42.702;23.296;2023-02-28T15:32:28;15.30;;;10.23;;
15476;SDS011;7840;42.702;23.296;2023-02-28T15:34:56;15.70;;;10.40;;
15476;SDS011;7840;42.702;23.296;2023-02-28T15:37:28;25.47;;;12.97;;
15476;SDS011;7840;42.702;23.296;2023-02-28T15:39:58;11.80;;;10.53;;
15476;SDS011;7840;42.702;23.296;2023-02-28T15:42:27;16.70;;;10.90;;
15476;SDS011;7840;42.702;23.296;2023-02-28T15:44:56;21.90;;;12.40;;
15476;SDS011;7840;42.702;23.296;2023-02-28T15:47:25;21.87;;;11.97;;
15476;SDS011;7840;42.702;23.296;2023-02-28T15:49:56;17.50;;;11.73;;
15476;SDS011;7840;42.702;23.296;2023-02-28T15:52:26;16.97;;;11.67;;
15476;SDS011;7840;42.702;23.296;2023-02-28T15:54:56;14.50;;;11.73;;
15476;SDS011;7840;42.702;23.296;2023-02-28T15:57:25;18.10;;;11.50;;
15476;SDS011;7840;42.702;23.296;2023-02-28T15:59:54;13.43;;;11.17;;
15476;SDS011;7840;42.702;23.296;2023-02-28T16:02:27;21.37;;;11.37;;
15476;SDS011;7840;42.702;23.296;2023-02-28T16:04:59;15.47;;;10.97;;
15476;SDS011;7840;42.702;23.296;2023-02-28T16:07:27;17.83;;;11.90;;